createdAt,value
2018-06-22T00:00:32.979Z,63.55
2018-06-22T00:03:01.347Z,63.61
2018-06-22T00:05:29.338Z,64.66
2018-06-22T00:07:57.739Z,64.67
2018-06-22T00:10:25.971Z,65.21
2018-06-22T00:12:54.318Z,64.97
2018-06-22T00:15:22.638Z,65.07
2018-06-22T00:17:50.892Z,65.60
2018-06-22T00:20:19.519Z,65.79
2018-06-22T00:22:48.493Z,66.22
2018-06-22T00:25:16.857Z,66.46
2018-06-22T00:27:45.413Z,66.59
2018-06-22T00:30:13.815Z,66.53
2018-06-22T00:32:42.403Z,66.42
2018-06-22T00:35:10.448Z,67.05
2018-06-22T00:37:38.976Z,67.52
2018-06-22T00:40:07.410Z,67.61
2018-06-22T00:42:35.778Z,67.51
2018-06-22T00:45:04.511Z,67.72
2018-06-22T00:47:32.767Z,67.69
2018-06-22T00:50:01.026Z,68.14
2018-06-22T00:52:29.620Z,67.93
2018-06-22T00:54:57.625Z,68.02
2018-06-22T00:57:25.931Z,68.15
2018-06-22T00:59:54.220Z,68.72
2018-06-22T01:02:22.348Z,69.20
2018-06-22T01:04:50.732Z,69.27
2018-06-22T01:07:19.673Z,69.40
2018-06-22T01:09:48.139Z,69.27
2018-06-22T01:12:16.975Z,69.49
2018-06-22T01:14:45.584Z,69.47
2018-06-22T01:17:13.919Z,69.46
2018-06-22T01:19:42.391Z,69.87
2018-06-22T01:22:10.829Z,69.58
2018-06-22T01:24:39.287Z,69.69
2018-06-22T01:27:07.727Z,69.91
2018-06-22T01:29:36.234Z,69.53
2018-06-22T01:32:04.876Z,69.59
2018-06-22T01:34:33.246Z,69.41
2018-06-22T01:37:01.674Z,69.47
2018-06-22T01:39:30.185Z,69.38
2018-06-22T01:41:59.214Z,69.45
2018-06-22T01:44:27.504Z,69.63
2018-06-22T01:49:25.476Z,69.38
2018-06-22T01:51:53.688Z,69.66
2018-06-22T01:54:22.113Z,69.64
2018-06-22T01:56:50.783Z,69.51
2018-06-22T01:59:19.110Z,69.55
2018-06-22T02:01:47.315Z,69.51
2018-06-22T02:04:16.114Z,69.76
2018-06-22T02:06:44.479Z,69.68
2018-06-22T02:09:13.297Z,69.63
2018-06-22T02:11:41.647Z,69.80
2018-06-22T02:14:09.987Z,70.10
2018-06-22T02:16:38.338Z,70.02
2018-06-22T02:19:06.923Z,70.19
2018-06-22T02:21:35.318Z,70.18
2018-06-22T02:24:03.411Z,70.35
2018-06-22T02:26:31.954Z,70.56
2018-06-22T02:29:00.210Z,70.27
2018-06-22T02:31:28.527Z,70.14
2018-06-22T02:33:57.724Z,70.00
2018-06-22T02:36:25.921Z,69.89
2018-06-22T02:38:54.307Z,69.57
2018-06-22T02:41:23.131Z,69.48
2018-06-22T02:43:51.465Z,69.29
2018-06-22T02:46:20.146Z,69.07
2018-06-22T02:48:48.733Z,68.86
2018-06-22T02:51:17.177Z,68.84
2018-06-22T02:53:47.671Z,68.74
2018-06-22T02:56:17.769Z,68.70
2018-06-22T02:58:48.100Z,68.57
2018-06-22T03:01:16.431Z,68.62
2018-06-22T03:03:44.703Z,68.47
2018-06-22T03:06:13.623Z,68.46
2018-06-22T03:08:42.101Z,68.50
2018-06-22T03:11:10.455Z,68.39
2018-06-22T03:13:38.883Z,68.20
2018-06-22T03:16:08.562Z,68.21
2018-06-22T03:18:37.167Z,68.13
2018-06-22T03:21:05.497Z,68.06
2018-06-22T03:23:33.755Z,67.79
2018-06-22T03:26:02.509Z,67.72
2018-06-22T03:28:30.803Z,67.64
2018-06-22T03:30:58.927Z,67.55
2018-06-22T03:33:27.399Z,67.48
2018-06-22T03:35:55.694Z,67.39
2018-06-22T03:38:24.067Z,67.48
2018-06-22T03:40:52.735Z,67.43
2018-06-22T03:43:20.891Z,67.41
2018-06-22T03:45:49.317Z,67.58
2018-06-22T03:48:18.432Z,67.54
2018-06-22T03:50:46.776Z,67.52
2018-06-22T03:53:15.335Z,67.53
2018-06-22T03:55:44.432Z,67.62
2018-06-22T03:58:12.705Z,67.43
2018-06-22T04:00:41.214Z,67.46
2018-06-22T04:03:09.290Z,67.43
2018-06-22T04:05:37.846Z,67.56
2018-06-22T04:08:06.359Z,67.54
2018-06-22T04:10:37.258Z,67.54
2018-06-22T04:13:07.337Z,67.61
2018-06-22T04:15:35.765Z,67.63
2018-06-22T04:18:04.499Z,67.39
2018-06-22T04:20:32.724Z,67.36
2018-06-22T04:23:01.602Z,67.26
2018-06-22T04:25:29.831Z,67.04
2018-06-22T04:27:57.999Z,66.88
2018-06-22T04:30:26.643Z,66.78
2018-06-22T04:32:54.981Z,66.77
2018-06-22T04:35:23.146Z,66.67
2018-06-22T04:37:51.895Z,66.58
2018-06-22T04:40:20.311Z,66.35
2018-06-22T04:42:48.529Z,66.37
2018-06-22T04:45:17.060Z,66.35
2018-06-22T04:47:45.417Z,66.22
2018-06-22T04:50:13.445Z,66.10
2018-06-22T04:52:41.576Z,65.81
2018-06-22T04:55:09.849Z,65.65
2018-06-22T04:57:38.150Z,65.73
2018-06-22T05:00:06.689Z,65.80
2018-06-22T05:02:35.007Z,66.08
2018-06-22T05:05:03.598Z,66.22
2018-06-22T05:07:33.534Z,65.82
2018-06-22T05:10:02.147Z,65.33
2018-06-22T05:12:30.210Z,65.43
2018-06-22T05:14:58.625Z,65.28
2018-06-22T05:17:27.008Z,65.07
2018-06-22T05:19:55.140Z,64.55
2018-06-22T05:22:23.736Z,64.21
2018-06-22T05:24:51.788Z,63.90
2018-06-22T05:27:20.035Z,63.46
2018-06-22T05:29:48.624Z,63.49
2018-06-22T05:32:17.211Z,63.74
2018-06-22T05:34:45.486Z,63.62
2018-06-22T05:37:14.368Z,63.48
2018-06-22T05:39:43.891Z,63.44
2018-06-22T05:42:12.872Z,63.22
2018-06-22T05:44:42.128Z,63.19
2018-06-22T05:47:10.910Z,63.35
2018-06-22T05:49:39.538Z,63.25
2018-06-22T05:52:07.897Z,62.99
2018-06-22T05:54:36.236Z,62.84
2018-06-22T05:57:05.077Z,62.99
2018-06-22T05:59:33.515Z,62.91
2018-06-22T06:02:02.089Z,62.79
2018-06-22T06:04:30.711Z,63.01
2018-06-22T06:06:59.283Z,62.90
2018-06-22T06:09:27.757Z,62.95
2018-06-22T06:11:56.152Z,62.90
2018-06-22T06:14:24.591Z,62.90
2018-06-22T06:16:53.127Z,62.90
2018-06-22T06:19:21.746Z,62.98
2018-06-22T06:21:50.040Z,62.96
2018-06-22T06:24:18.059Z,63.04
2018-06-22T06:26:46.403Z,62.81
2018-06-22T06:29:15.230Z,62.56
2018-06-22T06:31:43.670Z,62.66
2018-06-22T06:34:11.787Z,62.82
2018-06-22T06:36:39.867Z,62.79
2018-06-22T06:39:08.260Z,63.01
2018-06-22T06:41:36.842Z,63.14
2018-06-22T06:44:05.499Z,63.35
2018-06-22T06:46:34.094Z,63.77
2018-06-22T06:49:02.326Z,64.83
2018-06-22T06:51:30.454Z,65.80
2018-06-22T06:53:58.978Z,66.49
2018-06-22T06:56:27.615Z,66.79
2018-06-22T06:58:55.619Z,66.83
2018-06-22T07:01:23.739Z,67.55
2018-06-22T07:03:51.788Z,67.80
2018-06-22T07:06:19.926Z,68.57
2018-06-22T07:08:48.491Z,68.28
2018-06-22T07:11:17.468Z,69.21
2018-06-22T07:13:45.578Z,69.97
2018-06-22T07:16:13.551Z,70.60
2018-06-22T07:18:41.706Z,71.42
2018-06-22T07:21:09.737Z,71.82
2018-06-22T07:23:38.406Z,72.39
2018-06-22T07:26:06.789Z,72.90
2018-06-22T07:28:35.154Z,73.69
2018-06-22T07:31:03.798Z,73.40
2018-06-22T07:33:32.275Z,74.06
2018-06-22T07:36:01.468Z,75.16
2018-06-22T07:38:29.504Z,75.25
2018-06-22T07:40:57.531Z,75.44
2018-06-22T07:43:25.819Z,75.08
2018-06-22T07:45:54.132Z,75.67
2018-06-22T07:48:22.886Z,75.80
2018-06-22T07:50:51.264Z,76.62
2018-06-22T07:53:19.791Z,77.06
2018-06-22T07:55:48.518Z,78.04
2018-06-22T07:58:17.339Z,77.88
2018-06-22T08:00:45.452Z,78.54
2018-06-22T08:03:15.059Z,78.79
2018-06-22T08:05:43.400Z,79.29
2018-06-22T08:08:11.438Z,79.62
2018-06-22T08:10:39.491Z,80.57
2018-06-22T08:13:08.908Z,80.79
2018-06-22T08:15:37.316Z,81.79
2018-06-22T08:18:06.017Z,82.37
2018-06-22T08:20:34.407Z,83.43
2018-06-22T08:23:02.912Z,83.32
2018-06-22T08:25:31.307Z,83.45
2018-06-22T08:28:00.175Z,83.79
2018-06-22T08:30:28.235Z,83.25
2018-06-22T08:32:56.246Z,83.60
2018-06-22T08:35:24.895Z,84.08
2018-06-22T08:37:52.912Z,84.61
2018-06-22T08:40:21.530Z,84.28
2018-06-22T08:42:50.599Z,84.53
2018-06-22T08:45:19.332Z,84.21
2018-06-22T08:47:47.851Z,84.36
2018-06-22T08:50:16.695Z,83.81
2018-06-22T08:52:44.767Z,83.76
2018-06-22T08:55:12.857Z,84.28
2018-06-22T08:57:41.342Z,83.75
2018-06-22T09:00:10.942Z,83.63
2018-06-22T09:02:38.988Z,83.48
2018-06-22T09:05:07.495Z,83.89
2018-06-22T09:07:35.579Z,84.22
2018-06-22T09:10:04.839Z,83.89
2018-06-22T09:12:33.634Z,83.92
2018-06-22T09:15:03.051Z,84.12
2018-06-22T09:17:31.464Z,84.42
2018-06-22T09:20:04.320Z,84.49
2018-06-22T09:22:32.954Z,84.92
2018-06-22T09:25:03.232Z,84.97
2018-06-22T09:27:31.654Z,84.99
2018-06-22T09:30:00.067Z,84.22
2018-06-22T09:32:28.474Z,83.60
2018-06-22T09:34:56.899Z,83.44
2018-06-22T09:37:25.253Z,83.47
2018-06-22T09:39:53.734Z,83.47
2018-06-22T09:42:22.541Z,83.06
2018-06-22T09:44:51.362Z,82.64
2018-06-22T09:47:20.141Z,82.58
2018-06-22T09:49:48.447Z,83.41
2018-06-22T09:52:17.847Z,82.96
2018-06-22T09:54:47.543Z,81.89
2018-06-22T09:57:15.918Z,82.08
2018-06-22T09:59:44.059Z,81.68
2018-06-22T10:02:12.534Z,81.21
2018-06-22T10:04:40.553Z,82.13
2018-06-22T10:07:08.667Z,82.92
2018-06-22T10:09:36.676Z,82.56
2018-06-22T10:12:06.751Z,82.05
2018-06-22T10:14:34.816Z,81.46
2018-06-22T10:17:02.894Z,80.72
2018-06-22T10:19:31.294Z,80.18
2018-06-22T10:21:59.389Z,79.24
2018-06-22T10:24:28.141Z,79.11
2018-06-22T10:26:56.705Z,79.66
2018-06-22T10:29:24.893Z,79.29
2018-06-22T10:31:53.314Z,79.78
2018-06-22T10:34:21.711Z,80.09
2018-06-22T10:36:49.840Z,79.52
2018-06-22T10:39:18.091Z,78.99
2018-06-22T10:41:46.560Z,78.96
2018-06-22T10:44:14.851Z,79.11
2018-06-22T10:46:43.170Z,79.59
2018-06-22T10:49:11.354Z,79.50
2018-06-22T10:51:39.889Z,78.51
2018-06-22T10:54:08.111Z,77.78
2018-06-22T10:56:37.784Z,77.02
2018-06-22T10:59:09.175Z,77.21
2018-06-22T11:01:37.684Z,78.15
2018-06-22T11:04:05.985Z,77.54
2018-06-22T11:06:34.407Z,77.41
2018-06-22T11:09:03.298Z,78.25
2018-06-22T11:11:32.151Z,78.72
2018-06-22T11:14:00.970Z,79.49
2018-06-22T11:16:29.112Z,80.31
2018-06-22T11:18:57.761Z,79.02
2018-06-22T11:21:25.947Z,77.48
2018-06-22T11:23:54.053Z,76.15
2018-06-22T11:26:22.495Z,75.55
2018-06-22T11:28:50.735Z,73.55
2018-06-22T11:31:18.970Z,72.37
2018-06-22T11:33:47.402Z,72.45
2018-06-22T11:36:15.472Z,70.20
2018-06-22T11:38:43.479Z,69.77
2018-06-22T11:41:11.918Z,70.84
2018-06-22T11:43:39.915Z,66.93
2018-06-22T11:46:08.066Z,66.80
2018-06-22T11:48:36.070Z,64.55
2018-06-22T11:51:04.250Z,61.28
2018-06-22T11:53:32.547Z,60.35
2018-06-22T11:56:00.607Z,59.65
2018-06-22T11:58:28.684Z,58.73
2018-06-22T12:00:57.025Z,57.71
2018-06-22T12:03:25.051Z,58.76
2018-06-22T12:05:53.111Z,58.73
2018-06-22T12:08:21.444Z,58.48
2018-06-22T12:10:49.456Z,58.88
2018-06-22T12:13:17.607Z,59.53
2018-06-22T12:15:46.118Z,60.43
2018-06-22T12:18:14.550Z,60.70
2018-06-22T12:20:42.832Z,61.19
2018-06-22T12:23:11.494Z,61.26
2018-06-22T12:25:39.534Z,60.85
2018-06-22T12:28:07.961Z,60.84
2018-06-22T12:30:36.015Z,61.80
2018-06-22T12:33:04.103Z,61.79
2018-06-22T12:35:32.564Z,60.06
2018-06-22T12:38:00.683Z,59.24
2018-06-22T12:40:28.707Z,59.48
2018-06-22T12:42:57.399Z,60.01
2018-06-22T12:45:25.719Z,60.20
2018-06-22T12:47:54.818Z,59.76
2018-06-22T12:50:22.938Z,59.82
2018-06-22T12:52:51.003Z,60.76
2018-06-22T12:55:19.328Z,59.64
2018-06-22T12:57:47.754Z,58.51
2018-06-22T13:00:16.013Z,58.92
2018-06-22T13:02:45.533Z,60.81
2018-06-22T13:05:14.230Z,59.59
2018-06-22T13:07:43.580Z,59.76
2018-06-22T13:10:13.750Z,60.10
2018-06-22T13:12:43.706Z,58.42
2018-06-22T13:15:12.085Z,57.63
2018-06-22T13:17:41.207Z,56.76
2018-06-22T13:20:13.864Z,55.65
2018-06-22T13:22:42.478Z,55.43
2018-06-22T13:25:12.088Z,55.33
2018-06-22T13:27:41.709Z,54.52
2018-06-22T13:30:09.895Z,53.29
2018-06-22T13:32:38.486Z,52.44
2018-06-22T13:35:06.590Z,51.25
2018-06-22T13:37:35.377Z,52.38
2018-06-22T13:40:04.143Z,52.08
2018-06-22T13:42:34.231Z,52.37
2018-06-22T13:45:03.839Z,52.85
2018-06-22T13:47:39.319Z,52.24
2018-06-22T13:50:08.325Z,52.67
2018-06-22T13:52:36.746Z,53.00
2018-06-22T13:55:07.208Z,52.69
2018-06-22T13:57:35.605Z,49.77
2018-06-22T14:00:05.673Z,48.54
2018-06-22T14:02:33.973Z,47.76
2018-06-22T14:05:08.372Z,47.21
2018-06-22T14:07:36.980Z,47.59
2018-06-22T14:10:06.845Z,46.50
2018-06-22T14:12:36.196Z,46.48
2018-06-22T14:15:05.357Z,47.14
2018-06-22T14:17:33.871Z,48.20
2018-06-22T14:20:02.903Z,48.75
2018-06-22T14:22:31.918Z,49.73
2018-06-22T14:25:01.327Z,50.58
2018-06-22T14:27:30.627Z,50.26
2018-06-22T14:29:59.885Z,50.89
2018-06-22T14:32:29.562Z,51.32
2018-06-22T14:34:58.103Z,49.84
2018-06-22T14:37:27.251Z,50.43
2018-06-22T14:39:55.587Z,50.67
2018-06-22T14:42:23.820Z,50.85
2018-06-22T14:44:51.976Z,51.69
2018-06-22T14:47:20.493Z,52.34
2018-06-22T14:49:49.404Z,52.82
2018-06-22T14:52:17.779Z,54.01
2018-06-22T14:54:51.322Z,54.61
2018-06-22T14:57:24.991Z,54.31
2018-06-22T14:59:58.782Z,54.28
2018-06-22T15:02:33.458Z,53.06
2018-06-22T15:05:07.454Z,53.31
2018-06-22T15:07:58.055Z,53.06
2018-06-22T15:10:26.401Z,51.51
2018-06-22T15:12:55.121Z,50.81
2018-06-22T15:15:23.368Z,51.18
2018-06-22T15:17:53.491Z,51.18
2018-06-22T15:20:22.802Z,51.90
2018-06-22T15:22:51.605Z,52.96
2018-06-22T15:25:19.692Z,53.60
2018-06-22T15:27:48.362Z,52.97
2018-06-22T15:30:16.495Z,53.09
2018-06-22T15:32:44.620Z,53.73
2018-06-22T15:35:18.385Z,54.14
2018-06-22T15:37:51.903Z,54.72
2018-06-22T15:40:25.372Z,55.06
2018-06-22T15:42:59.535Z,55.17
2018-06-22T15:45:28.984Z,54.92
2018-06-22T15:48:02.647Z,55.50
2018-06-22T15:50:36.303Z,55.74
2018-06-22T15:53:09.782Z,55.97
2018-06-22T15:55:41.049Z,56.52
2018-06-22T15:58:09.782Z,56.89
2018-06-22T16:00:38.111Z,57.36
2018-06-22T16:03:11.809Z,58.08
2018-06-22T16:05:39.938Z,58.75
2018-06-22T16:08:08.127Z,59.64
2018-06-22T16:10:36.169Z,60.31
2018-06-22T16:13:09.099Z,60.56
2018-06-22T16:15:42.718Z,61.30
2018-06-22T16:20:21.271Z,61.29
2018-06-22T16:22:54.836Z,61.16
2018-06-22T16:25:28.332Z,61.01
2018-06-22T16:27:58.102Z,60.39
2018-06-22T16:30:26.646Z,59.81
2018-06-22T16:32:55.204Z,59.31
2018-06-22T16:35:23.817Z,58.10
2018-06-22T16:37:52.167Z,56.70
2018-06-22T16:40:20.228Z,55.46
2018-06-22T16:42:50.240Z,55.81
2018-06-22T16:45:18.676Z,56.75
2018-06-22T16:47:46.846Z,57.87
2018-06-22T16:50:15.290Z,58.66
2018-06-22T16:52:43.386Z,58.62
2018-06-22T16:55:12.071Z,58.10
2018-06-22T16:57:41.209Z,57.82
2018-06-22T17:00:10.121Z,58.50
2018-06-22T17:02:38.339Z,58.04
2018-06-22T17:05:07.170Z,57.92
2018-06-22T17:07:41.302Z,57.84
2018-06-22T17:10:14.761Z,56.80
2018-06-22T17:12:48.539Z,56.63
2018-06-22T17:15:22.156Z,56.86
2018-06-22T17:17:56.444Z,56.96
2018-06-22T17:20:24.516Z,55.37
2018-06-22T17:22:52.563Z,55.50
2018-06-22T17:25:20.945Z,55.54
2018-06-22T17:27:49.053Z,55.93
2018-06-22T17:30:17.228Z,56.29
2018-06-22T17:32:45.908Z,56.96
2018-06-22T17:35:14.302Z,57.40
2018-06-22T17:37:42.638Z,57.70
2018-06-22T17:40:11.107Z,57.35
2018-06-22T17:42:39.482Z,57.05
2018-06-22T17:45:07.658Z,56.88
2018-06-22T17:47:36.271Z,56.66
2018-06-22T17:50:10.749Z,56.68
2018-06-22T17:52:38.919Z,56.07
2018-06-22T17:55:07.483Z,55.99
2018-06-22T17:57:36.638Z,56.55
2018-06-22T18:00:12.506Z,56.36
2018-06-22T18:02:47.136Z,56.74
2018-06-22T18:05:21.082Z,56.47
2018-06-22T18:07:51.804Z,56.95
2018-06-22T18:10:25.496Z,57.49
2018-06-22T18:12:57.796Z,58.23
2018-06-22T18:15:26.607Z,59.33
2018-06-22T18:17:56.571Z,60.40
2018-06-22T18:20:25.156Z,60.67
2018-06-22T18:22:54.749Z,60.96
2018-06-22T18:25:22.914Z,61.20
2018-06-22T18:27:53.443Z,61.73
2018-06-22T18:30:21.949Z,61.81
2018-06-22T18:32:53.378Z,62.11
2018-06-22T18:35:22.896Z,62.37
2018-06-22T18:37:51.853Z,62.58
2018-06-22T18:40:20.666Z,62.98
2018-06-22T18:42:50.174Z,63.18
2018-06-22T18:45:19.223Z,63.79
2018-06-22T18:47:47.918Z,63.89
2018-06-22T18:50:17.556Z,63.87
2018-06-22T18:52:53.141Z,63.55
2018-06-22T18:55:27.820Z,63.22
2018-06-22T18:58:02.162Z,62.91
2018-06-22T19:00:38.806Z,62.71
2018-06-22T19:03:13.300Z,62.95
2018-06-22T19:05:41.439Z,62.99
2018-06-22T19:08:10.179Z,63.29
2018-06-22T19:10:39.173Z,63.14
2018-06-22T19:13:07.971Z,63.13
2018-06-22T19:15:36.446Z,63.22
2018-06-22T19:18:06.118Z,63.40
2018-06-22T19:20:34.533Z,63.59
2018-06-22T19:23:03.059Z,64.09
2018-06-22T19:25:31.223Z,64.26
2018-06-22T19:27:59.879Z,64.75
2018-06-22T19:30:28.675Z,64.57
2018-06-22T19:32:58.537Z,64.77
2018-06-22T19:35:27.567Z,65.16
2018-06-22T19:37:58.329Z,65.70
2018-06-22T19:40:27.529Z,66.09
2018-06-22T19:42:57.095Z,66.61
2018-06-22T19:45:32.424Z,67.14
2018-06-22T19:48:08.699Z,67.82
2018-06-22T19:50:43.667Z,68.61
2018-06-22T19:54:15.725Z,69.67
2018-06-22T19:56:44.286Z,70.59
2018-06-22T19:59:12.604Z,71.19
2018-06-22T20:01:40.722Z,71.30
2018-06-22T20:04:09.075Z,71.34
2018-06-22T20:06:37.170Z,71.61
2018-06-22T20:09:08.063Z,71.83
2018-06-22T20:11:36.329Z,72.07
2018-06-22T20:14:04.887Z,72.33
2018-06-22T20:16:33.438Z,72.19
2018-06-22T20:19:02.043Z,72.61
2018-06-22T20:21:30.959Z,73.02
2018-06-22T20:23:59.039Z,73.00
2018-06-22T20:26:27.119Z,73.92
2018-06-22T20:28:55.648Z,73.73
2018-06-22T20:31:29.389Z,73.85
2018-06-22T20:34:02.029Z,74.23
2018-06-22T20:36:36.089Z,74.31
2018-06-22T20:39:11.225Z,74.32
2018-06-22T20:41:44.872Z,74.51
2018-06-22T20:44:18.718Z,74.97
2018-06-22T20:46:52.255Z,75.15
2018-06-22T20:49:26.290Z,75.12
2018-06-22T20:51:54.590Z,75.25
2018-06-22T20:54:23.238Z,75.75
2018-06-22T20:56:51.476Z,75.70
2018-06-22T20:59:19.586Z,75.76
2018-06-22T21:01:47.618Z,75.89
2018-06-22T21:04:15.990Z,75.85
2018-06-22T21:06:44.051Z,75.96
2018-06-22T21:09:12.719Z,76.05
2018-06-22T21:11:41.198Z,76.09
2018-06-22T21:14:09.327Z,76.21
2018-06-22T21:16:37.966Z,76.17
2018-06-22T21:19:06.599Z,76.12
2018-06-22T21:21:40.426Z,76.19
2018-06-22T21:24:08.431Z,76.76
2018-06-22T21:26:36.466Z,77.21
2018-06-22T21:29:09.906Z,77.09
2018-06-22T21:31:43.769Z,76.83
2018-06-22T21:34:17.547Z,77.13
2018-06-22T21:36:50.955Z,77.30
2018-06-22T21:39:19.313Z,77.22
2018-06-22T21:41:47.333Z,76.90
2018-06-22T21:44:15.334Z,76.78
2018-06-22T21:46:43.498Z,76.90
2018-06-22T21:49:11.504Z,76.72
2018-06-22T21:51:39.712Z,76.44
2018-06-22T21:54:08.311Z,75.92
2018-06-22T21:56:36.775Z,75.56
2018-06-22T21:59:04.887Z,75.20
2018-06-22T22:01:34.523Z,75.02
2018-06-22T22:04:02.871Z,74.84
2018-06-22T22:06:31.092Z,74.87
2018-06-22T22:08:59.443Z,74.92
2018-06-22T22:11:32.979Z,74.88
2018-06-22T22:14:01.039Z,74.96
2018-06-22T22:16:29.269Z,74.88
2018-06-22T22:18:57.290Z,74.91
2018-06-22T22:21:25.379Z,74.73
2018-06-22T22:23:54.040Z,74.63
2018-06-22T22:26:22.120Z,74.48
2018-06-22T22:28:50.259Z,74.46
2018-06-22T22:31:19.110Z,74.52
2018-06-22T22:33:47.312Z,74.69
2018-06-22T22:36:15.683Z,74.65
2018-06-22T22:38:44.031Z,74.73
2018-06-22T22:41:12.074Z,74.86
2018-06-22T22:43:40.090Z,74.95
2018-06-22T22:46:08.505Z,74.98
2018-06-22T22:48:36.815Z,75.27
2018-06-22T22:51:04.982Z,75.14
2018-06-22T22:53:33.327Z,75.34
2018-06-22T22:56:02.039Z,75.20
2018-06-22T22:58:30.148Z,75.33
2018-06-22T23:00:58.417Z,75.67
2018-06-22T23:03:26.446Z,76.03
2018-06-22T23:05:54.815Z,76.20
2018-06-22T23:08:23.100Z,76.28
2018-06-22T23:10:51.724Z,76.43
2018-06-22T23:13:20.185Z,76.78
2018-06-22T23:15:48.250Z,76.87
2018-06-22T23:18:16.368Z,76.89
2018-06-22T23:20:44.964Z,77.07
2018-06-22T23:23:24.155Z,77.24
2018-06-22T23:25:52.198Z,77.62
2018-06-22T23:28:20.561Z,77.85
2018-06-22T23:30:48.633Z,78.21
2018-06-22T23:33:16.834Z,78.24
2018-06-22T23:35:45.640Z,78.52
2018-06-22T23:38:13.802Z,78.74
2018-06-22T23:40:42.300Z,78.86
2018-06-22T23:43:10.289Z,78.93
2018-06-22T23:45:38.644Z,79.01
2018-06-22T23:48:07.160Z,79.17
2018-06-22T23:50:35.279Z,79.25
2018-06-22T23:53:03.474Z,79.23
2018-06-22T23:55:32.509Z,79.25
2018-06-22T23:58:00.671Z,79.22
